Nearby METAR Reports

 

KBVO - Bartlesville, Oklahoma, USA
Distance from station: WNW 10mi, 16km
Updated: Thu, 22-Oct-2020 8:53am CDT
Clear
Clear
 Wind from S
Wind: S 13 mph , 20 km/h
Temperature: 70°F , 21°C
Dew Point: 64°F , 18°C
Humidity: 83%
Barometer: 29.94 inHg , 1013.9 hPa
Clouds: Clear
Visibility: 10 miles , 16 km
2020/10/22 13:53 KBVO 221353Z AUTO 17011KT 10SM CLR 21/18 A2994 RMK AO2 SLP128 T02060183
KCFV - Coffeyville, Kansas, USA
Distance from station: NNE 31mi, 49km
Updated: Thu, 22-Oct-2020 8:52am CDT
Clear
Clear
 Wind from S
Wind: S 20 mph , 31 km/h, Gust: 29 mph , 46 km/h
Temperature: 72°F , 22°C
Dew Point: 64°F , 18°C
Humidity: 78%
Barometer: 29.92 inHg , 1013.2 hPa
Clouds: Clear
Visibility: 10 miles , 16 km
2020/10/22 13:52 KCFV 221352Z AUTO 18017G25KT 10SM CLR 22/18 A2992 RMK AO2 PK WND 18026/1307 SLP128 T02170178
 
KIDP - Independence, Kansas, USA
Distance from station: N 32mi, 52km
Updated: Thu, 22-Oct-2020 8:55am CDT
Partly cloudy
Partly cloudy
 Wind from S
Wind: S 20 mph , 31 km/h, Gust: 29 mph , 46 km/h
Temperature: 70°F , 21°C
Dew Point: 64°F , 18°C
Humidity: 83%
Barometer: 29.93 inHg , 1013.5 hPa
Clouds: Partly cloudy
Visibility: 10 miles , 16 km
Cloud details: Partly cloudy 1200 ft
2020/10/22 13:55 KIDP 221355Z AUTO 17017G25KT 10SM SCT012 21/18 A2993 RMK AO2 T02050184
KGCM - Claremore, Oklahoma, USA
Distance from station: SE 35mi, 56km
Updated: Thu, 22-Oct-2020 8:55am CDT
Clear
Clear
 Wind from S
Wind: S 12 mph , 19 km/h
Temperature: 70°F , 21°C
Dew Point: 59°F , 15°C
Humidity: 69%
Barometer: 29.98 inHg , 1015.2 hPa
Clouds: Clear
Visibility: 10 miles , 16 km
2020/10/22 13:55 KGCM 221355Z AUTO 17010KT 10SM CLR 21/15 A2998 RMK AO2
 
KTUL - Tulsa, Oklahoma, USA
Distance from station: S 35mi, 56km
Updated: Thu, 22-Oct-2020 8:53am CDT
Few Clouds
Few Clouds
 Wind from SSE
Wind: SSE 15 mph , 24 km/h, Gust: 23 mph , 37 km/h
Temperature: 70°F , 21°C
Dew Point: 66°F , 19°C
Humidity: 88%
Barometer: 29.95 inHg , 1014.2 hPa
Clouds: Few Clouds
Visibility: 10 miles , 16 km
Cloud details: Few Clouds 1000 ft
2020/10/22 13:53 KTUL 221353Z 16013G20KT 10SM FEW010 21/19 A2995 RMK AO2 SLP134 T02110189
KRVS - Tulsa, Oklahoma, USA
Distance from station: S 46mi, 74km
Updated: Thu, 22-Oct-2020 8:53am CDT
Clear
Clear
 Wind from SSE
Wind: SSE 7 mph , 11 km/h
Temperature: 72°F , 22°C
Dew Point: 66°F , 19°C
Humidity: 83%
Barometer: 29.95 inHg , 1014.2 hPa
Clouds: Clear
Visibility: 10 miles , 16 km
2020/10/22 13:53 KRVS 221353Z 16006KT 10SM CLR 22/19 A2995 RMK AO2 SLP147 T02220189
 
KPPF - Parsons, Kansas, USA
Distance from station: NNE 48mi, 76km
Updated: Thu, 22-Oct-2020 8:52am CDT

 
Barometer: 29.94 inHg , 1013.9 hPa
2020/10/22 13:52 KPPF 221352Z AUTO A2994 RMK AO2 SLPNO PWINO FZRANO $
KGMJ - Grove, Oklahoma, USA
Distance from station: E 63mi, 101km
Updated: Thu, 22-Oct-2020 8:55am CDT
Clear
Clear
 Wind from S
Wind: S 12 mph , 19 km/h, Gust: 17 mph , 28 km/h
Temperature: 70°F , 21°C
Dew Point: 63°F , 17°C
Humidity: 78%
Barometer: 29.99 inHg , 1015.6 hPa
Clouds: Clear
Visibility: 10 miles , 16 km
2020/10/22 13:55 KGMJ 221355Z AUTO 17010G15KT 10SM CLR 21/17 A2999 RMK AO2
 
KPNC - Ponca City, Oklahoma, USA
Distance from station: W 69mi, 111km
Updated: Thu, 22-Oct-2020 8:53am CDT
Clear
Clear
 Wind from S
Wind: S 9 mph , 15 km/h, Gust: 20 mph , 31 km/h
Temperature: 72°F , 22°C
Dew Point: 63°F , 17°C
Humidity: 73%
Barometer: 29.88 inHg , 1011.9 hPa
Clouds: Clear
Visibility: 10 miles , 16 km
2020/10/22 13:53 KPNC 221353Z AUTO 18008G17KT 10SM CLR 22/17 A2988 RMK AO2 SLP108 T02170172
KCNU - Chanute, Kansas, USA
Distance from station: NNE 69mi, 112km
Updated: Thu, 22-Oct-2020 8:52am CDT
Clear
Clear
 Wind from S
Wind: S 23 mph , 37 km/h, Gust: 36 mph , 57 km/h
Temperature: 72°F , 22°C
Dew Point: 64°F , 18°C
Humidity: 78%
Barometer: 29.92 inHg , 1013.2 hPa
Clouds: Clear
Visibility: 10 miles , 16 km
2020/10/22 13:52 KCNU 221352Z AUTO 18020G31KT 10SM CLR 22/18 A2992 RMK AO2 PK WND 18031/1351 SLP123 T02220183